Terminal Aerodrome Forecast
Issued by NWS

Home | Current Version | Previous Version | Graphics & Text | Print | Product List | Glossary On
Versions: 1 2 3 4 5 6 7 8 9 10 11 12 13 14 15 16 17 18
000
FTUS45 KGGW 252212 AAA
TAFOLF
TAF AMD
KOLF 252212Z 2522/2618 VRB04KT 2SM -SN OVC012
     FM260000 07005KT 5SM -RASN OVC030
     FM260600 06005KT 4SM -SN OVC020
     FM261200 05004KT P6SM VCSH OVC010=

USA.gov is the U.S. government's official web portal to all federal, state and local government web resources and services.